createdAt,value
2023-02-18T00:01:22.166Z,7.70
2023-02-18T00:03:49.413Z,7.90
2023-02-18T00:06:17.784Z,8.27
2023-02-18T00:08:45.607Z,7.57
2023-02-18T00:11:13.498Z,8.17
2023-02-18T00:13:40.505Z,6.63
2023-02-18T00:16:10.893Z,7.10
2023-02-18T00:18:38.689Z,7.63
2023-02-18T00:21:07.196Z,7.80
2023-02-18T00:23:34.295Z,7.63
2023-02-18T00:26:14.539Z,9.20
2023-02-18T00:28:41.595Z,7.27
2023-02-18T00:31:20.801Z,7.00
2023-02-18T00:33:47.709Z,7.37
2023-02-18T00:36:17.137Z,6.70
2023-02-18T00:38:52.508Z,6.57
2023-02-18T00:41:20.613Z,7.40
2023-02-18T00:43:47.752Z,7.30
2023-02-18T00:46:15.062Z,7.20
2023-02-18T00:48:42.014Z,7.17
2023-02-18T00:51:09.438Z,7.23
2023-02-18T00:53:37.281Z,6.90
2023-02-18T00:56:04.978Z,7.60
2023-02-18T00:58:31.887Z,6.90
2023-02-18T01:00:58.636Z,6.70
2023-02-18T01:03:25.718Z,6.30
2023-02-18T01:05:52.641Z,6.90
2023-02-18T01:08:20.848Z,5.43
2023-02-18T01:10:49.716Z,5.67
2023-02-18T01:13:16.897Z,7.10
2023-02-18T01:15:44.146Z,5.33
2023-02-18T01:18:11.328Z,5.37
2023-02-18T01:20:39.772Z,6.00
2023-02-18T01:23:06.796Z,5.00
2023-02-18T01:25:34.409Z,5.43
2023-02-18T01:28:01.480Z,5.67
2023-02-18T01:30:28.837Z,6.23
2023-02-18T01:32:57.355Z,5.77
2023-02-18T01:35:24.518Z,5.70
2023-02-18T01:37:51.457Z,5.73
2023-02-18T01:40:24.913Z,6.10
2023-02-18T01:42:52.152Z,5.60
2023-02-18T01:45:34.307Z,5.23
2023-02-18T01:48:21.098Z,5.17
2023-02-18T01:50:53.331Z,5.37
2023-02-18T01:53:31.220Z,5.50
2023-02-18T01:56:00.541Z,5.67
2023-02-18T01:58:27.558Z,5.80
2023-02-18T02:00:54.517Z,5.40
2023-02-18T02:03:21.531Z,5.20
2023-02-18T02:05:48.276Z,6.00
2023-02-18T02:08:15.113Z,5.50
2023-02-18T02:11:16.729Z,6.20
2023-02-18T02:14:08.767Z,6.40
2023-02-18T02:16:46.384Z,6.40
2023-02-18T02:19:40.829Z,7.17
2023-02-18T02:22:18.164Z,7.27
2023-02-18T02:25:09.593Z,7.20
2023-02-18T02:27:45.188Z,7.50
2023-02-18T02:30:29.363Z,8.03
2023-02-18T02:33:08.068Z,9.17
2023-02-18T02:35:40.896Z,7.93
2023-02-18T02:38:25.522Z,8.80
2023-02-18T02:40:56.920Z,9.87
2023-02-18T02:43:43.596Z,8.37
2023-02-18T02:46:30.504Z,8.13
2023-02-18T02:49:05.820Z,7.67
2023-02-18T02:51:46.815Z,7.40
2023-02-18T02:54:25.991Z,7.57
2023-02-18T02:57:08.942Z,6.80
2023-02-18T02:59:40.449Z,6.23
2023-02-18T03:02:18.927Z,6.13
2023-02-18T03:05:21.720Z,5.30
2023-02-18T03:08:03.128Z,5.27
2023-02-18T03:10:53.903Z,5.07
2023-02-18T03:13:39.356Z,3.87
2023-02-18T03:16:27.759Z,2.70
2023-02-18T03:19:11.565Z,3.20
2023-02-18T03:21:55.844Z,3.03
2023-02-18T03:24:37.708Z,2.63
2023-02-18T03:27:32.218Z,2.97
2023-02-18T03:30:04.788Z,3.13
2023-02-18T03:32:34.269Z,2.50
2023-02-18T03:35:06.129Z,2.40
2023-02-18T03:37:35.887Z,2.17
2023-02-18T03:40:03.245Z,1.83
2023-02-18T03:42:30.261Z,1.90
2023-02-18T03:44:57.043Z,2.10
2023-02-18T03:47:25.070Z,2.37
2023-02-18T03:49:51.795Z,2.70
2023-02-18T03:52:19.644Z,2.67
2023-02-18T03:54:46.353Z,2.53
2023-02-18T03:57:13.089Z,2.87
2023-02-18T03:59:39.736Z,3.00
2023-02-18T04:02:06.426Z,2.53
2023-02-18T04:04:33.343Z,2.37
2023-02-18T04:07:00.118Z,2.40
2023-02-18T04:09:27.025Z,2.83
2023-02-18T04:11:53.712Z,1.77
2023-02-18T04:14:20.441Z,2.00
2023-02-18T04:16:47.104Z,1.43
2023-02-18T04:19:13.970Z,2.60
2023-02-18T04:21:40.717Z,2.07
2023-02-18T04:24:07.500Z,1.60
2023-02-18T04:26:34.301Z,1.70
2023-02-18T04:29:00.994Z,1.27
2023-02-18T04:31:27.924Z,1.13
2023-02-18T04:33:54.649Z,1.23
2023-02-18T04:36:21.407Z,1.10
2023-02-18T04:38:48.130Z,1.10
2023-02-18T04:41:14.823Z,1.20
2023-02-18T04:43:41.627Z,1.43
2023-02-18T04:46:08.660Z,1.20
2023-02-18T04:48:35.580Z,0.70
2023-02-18T04:51:02.740Z,0.53
2023-02-18T04:53:29.584Z,0.50
2023-02-18T04:55:56.371Z,0.60
2023-02-18T04:58:23.206Z,0.40
2023-02-18T05:00:49.874Z,0.57
2023-02-18T05:03:16.864Z,0.40
2023-02-18T05:05:43.661Z,0.60
2023-02-18T05:08:10.388Z,0.50
2023-02-18T05:10:38.364Z,0.53
2023-02-18T05:13:05.402Z,0.50
2023-02-18T05:15:32.191Z,0.50
2023-02-18T05:17:58.949Z,0.50
2023-02-18T05:20:25.687Z,0.63
2023-02-18T05:22:52.345Z,0.60
2023-02-18T05:25:19.140Z,0.50
2023-02-18T05:27:45.966Z,0.60
2023-02-18T05:30:13.183Z,0.70
2023-02-18T05:32:40.007Z,0.80
2023-02-18T05:35:07.377Z,0.83
2023-02-18T05:37:34.223Z,0.70
2023-02-18T05:40:01.014Z,0.80
2023-02-18T05:42:27.746Z,0.70
2023-02-18T05:44:54.538Z,0.70
2023-02-18T05:47:21.276Z,0.63
2023-02-18T05:49:47.987Z,0.80
2023-02-18T05:52:14.656Z,0.90
2023-02-18T05:54:41.399Z,0.70
2023-02-18T05:57:08.240Z,0.80
2023-02-18T05:59:35.064Z,1.20
2023-02-18T06:02:01.832Z,0.73
2023-02-18T06:04:28.744Z,0.90
2023-02-18T06:06:55.480Z,1.23
2023-02-18T06:09:22.904Z,1.43
2023-02-18T06:11:49.651Z,0.80
2023-02-18T06:14:16.518Z,0.90
2023-02-18T06:16:43.312Z,1.03
2023-02-18T06:19:10.037Z,0.63
2023-02-18T06:21:36.795Z,0.90
2023-02-18T06:24:03.749Z,0.90
2023-02-18T06:26:31.031Z,0.70
2023-02-18T06:28:57.726Z,0.83
2023-02-18T06:31:24.690Z,1.03
2023-02-18T06:33:51.571Z,0.70
2023-02-18T06:36:18.388Z,0.90
2023-02-18T06:38:45.788Z,0.77
2023-02-18T06:41:14.303Z,0.60
2023-02-18T06:43:41.511Z,0.70
2023-02-18T06:46:08.971Z,0.70
2023-02-18T06:48:35.921Z,0.60
2023-02-18T06:51:03.605Z,0.40
2023-02-18T06:53:30.494Z,0.50
2023-02-18T06:55:57.932Z,0.50
2023-02-18T06:58:24.987Z,0.50
2023-02-18T07:00:51.716Z,0.60
2023-02-18T07:03:18.615Z,0.47
2023-02-18T07:05:45.655Z,0.50
2023-02-18T07:08:12.931Z,0.50
2023-02-18T07:10:39.783Z,0.40
2023-02-18T07:13:06.576Z,0.60
2023-02-18T07:15:33.357Z,0.50
2023-02-18T07:18:00.681Z,0.40
2023-02-18T07:20:28.310Z,0.57
2023-02-18T07:22:55.421Z,0.40
2023-02-18T07:25:23.454Z,0.40
2023-02-18T07:27:50.789Z,0.50
2023-02-18T07:30:18.556Z,0.60
2023-02-18T07:32:45.357Z,0.50
2023-02-18T07:35:15.328Z,0.60
2023-02-18T07:37:46.442Z,0.50
2023-02-18T07:40:15.665Z,0.50
2023-02-18T07:42:42.463Z,0.50
2023-02-18T07:45:10.127Z,0.60
2023-02-18T07:47:37.100Z,0.47
2023-02-18T07:50:04.645Z,0.70
2023-02-18T07:52:31.482Z,0.50
2023-02-18T07:54:58.154Z,0.60
2023-02-18T07:57:24.884Z,0.70
2023-02-18T07:59:51.570Z,0.50
2023-02-18T08:02:24.627Z,0.70
2023-02-18T08:04:51.471Z,0.63
2023-02-18T08:07:20.536Z,0.60
2023-02-18T08:09:49.184Z,0.67
2023-02-18T08:12:16.053Z,0.63
2023-02-18T08:14:43.009Z,1.10
2023-02-18T08:17:09.671Z,0.70
2023-02-18T08:19:36.431Z,1.13
2023-02-18T08:22:03.600Z,1.10
2023-02-18T08:24:30.496Z,1.30
2023-02-18T08:27:01.255Z,1.30
2023-02-18T08:29:28.710Z,1.30
2023-02-18T08:31:57.373Z,1.73
2023-02-18T08:34:24.300Z,1.40
2023-02-18T08:36:51.067Z,1.47
2023-02-18T08:39:18.938Z,1.13
2023-02-18T08:41:45.781Z,2.03
2023-02-18T08:44:12.570Z,1.83
2023-02-18T08:46:39.292Z,1.97
2023-02-18T08:49:06.640Z,1.90
2023-02-18T08:51:33.617Z,2.07
2023-02-18T08:54:00.516Z,1.60
2023-02-18T08:56:27.342Z,1.90
2023-02-18T08:58:54.244Z,1.47
2023-02-18T09:01:21.068Z,1.63
2023-02-18T09:03:48.680Z,1.40
2023-02-18T09:06:15.703Z,2.20
2023-02-18T09:08:42.377Z,1.87
2023-02-18T09:11:11.150Z,1.87
2023-02-18T09:13:38.683Z,1.97
2023-02-18T09:16:13.377Z,2.07
2023-02-18T09:18:41.030Z,1.60
2023-02-18T09:21:09.740Z,1.60
2023-02-18T09:23:36.863Z,1.50
2023-02-18T09:26:11.072Z,2.17
2023-02-18T09:28:37.806Z,1.77
2023-02-18T09:31:11.271Z,1.77
2023-02-18T09:33:45.887Z,1.80
2023-02-18T09:36:13.404Z,1.60
2023-02-18T09:38:40.179Z,1.90
2023-02-18T09:41:11.000Z,1.70
2023-02-18T09:43:43.998Z,2.27
2023-02-18T09:46:24.475Z,1.70
2023-02-18T09:48:51.936Z,1.90
2023-02-18T09:51:19.519Z,1.90
2023-02-18T09:53:47.017Z,1.97
2023-02-18T09:56:18.575Z,1.77
2023-02-18T09:58:47.544Z,1.73
2023-02-18T10:01:14.228Z,2.03
2023-02-18T10:03:41.529Z,2.17
2023-02-18T10:06:24.104Z,2.67
2023-02-18T10:08:54.327Z,2.37
2023-02-18T10:11:50.192Z,2.30
2023-02-18T10:14:17.255Z,2.30
2023-02-18T10:16:45.123Z,1.80
2023-02-18T10:19:21.237Z,2.00
2023-02-18T10:21:49.711Z,1.97
2023-02-18T10:24:27.874Z,1.90
2023-02-18T10:26:55.654Z,1.57
2023-02-18T10:29:23.610Z,1.50
2023-02-18T10:31:57.317Z,2.10
2023-02-18T10:35:00.431Z,2.07
2023-02-18T10:37:48.075Z,1.67
2023-02-18T10:40:33.658Z,2.13
2023-02-18T10:43:19.175Z,1.90
2023-02-18T10:46:23.951Z,2.00
2023-02-18T10:49:27.091Z,1.93
2023-02-18T10:51:57.938Z,1.83
2023-02-18T10:54:26.920Z,1.80
2023-02-18T10:56:59.753Z,1.90
2023-02-18T10:59:32.366Z,2.00
2023-02-18T11:02:05.756Z,2.10
2023-02-18T11:04:39.766Z,2.00
2023-02-18T11:07:13.228Z,2.00
2023-02-18T11:09:56.713Z,2.23
2023-02-18T11:12:43.255Z,1.93
2023-02-18T11:15:16.417Z,2.03
2023-02-18T11:17:48.072Z,2.70
2023-02-18T11:20:36.202Z,2.07
2023-02-18T11:23:18.570Z,2.83
2023-02-18T11:25:59.174Z,2.03
2023-02-18T11:28:49.260Z,2.33
2023-02-18T11:31:25.423Z,2.30
2023-02-18T11:33:59.444Z,1.80
2023-02-18T11:36:31.074Z,2.30
2023-02-18T11:39:04.307Z,2.33
2023-02-18T11:41:42.839Z,2.03
2023-02-18T11:44:27.947Z,2.13
2023-02-18T11:47:02.945Z,1.80
2023-02-18T11:49:31.366Z,1.87
2023-02-18T11:52:26.582Z,1.80
2023-02-18T11:55:01.799Z,1.63
2023-02-18T11:57:29.460Z,1.63
2023-02-18T11:59:59.760Z,1.80
2023-02-18T12:02:38.240Z,1.30
2023-02-18T12:05:11.702Z,1.77
2023-02-18T12:07:55.441Z,2.10
2023-02-18T12:10:33.190Z,2.00
2023-02-18T12:13:06.135Z,2.57
2023-02-18T12:15:47.077Z,2.77
2023-02-18T12:18:27.938Z,1.90
2023-02-18T12:21:19.797Z,1.60
2023-02-18T12:24:05.343Z,1.37
2023-02-18T12:26:58.663Z,1.50
2023-02-18T12:29:37.629Z,1.03
2023-02-18T12:32:13.790Z,1.60
2023-02-18T12:35:01.609Z,2.10
2023-02-18T12:37:51.796Z,1.60
2023-02-18T12:40:57.298Z,1.40
2023-02-18T12:44:00.805Z,1.50
2023-02-18T12:46:36.576Z,1.50
2023-02-18T12:49:06.015Z,1.70
2023-02-18T12:51:44.389Z,1.70
2023-02-18T12:54:11.022Z,1.87
2023-02-18T12:57:05.768Z,1.33
2023-02-18T12:59:44.220Z,1.40
2023-02-18T13:02:41.786Z,1.53
2023-02-18T13:05:26.614Z,1.47
2023-02-18T13:08:15.287Z,1.97
2023-02-18T13:11:18.270Z,1.47
2023-02-18T13:14:00.069Z,2.00
2023-02-18T13:16:27.905Z,1.87
2023-02-18T13:19:18.498Z,2.73
2023-02-18T13:21:48.093Z,4.80
2023-02-18T13:24:26.887Z,2.63
2023-02-18T13:27:06.483Z,2.40
2023-02-18T13:29:42.854Z,2.60
2023-02-18T13:32:27.766Z,1.63
2023-02-18T13:35:07.444Z,2.93
2023-02-18T13:37:49.561Z,3.83
2023-02-18T13:40:21.294Z,3.67
2023-02-18T13:42:52.158Z,1.60
2023-02-18T13:45:30.889Z,3.00
2023-02-18T13:47:59.230Z,1.40
2023-02-18T13:50:31.925Z,1.17
2023-02-18T13:53:07.807Z,1.80
2023-02-18T13:55:55.972Z,1.90
2023-02-18T13:58:48.626Z,1.40
2023-02-18T14:01:24.411Z,1.83
2023-02-18T14:03:57.363Z,1.47
2023-02-18T14:06:27.992Z,2.00
2023-02-18T14:09:14.946Z,1.57
2023-02-18T14:12:15.193Z,4.10
2023-02-18T14:14:42.129Z,1.67
2023-02-18T14:17:20.950Z,1.53
2023-02-18T14:19:59.847Z,1.33
2023-02-18T14:22:34.001Z,1.40
2023-02-18T14:25:04.934Z,1.20
2023-02-18T14:27:31.620Z,1.53
2023-02-18T14:30:15.986Z,1.07
2023-02-18T14:32:45.028Z,1.27
2023-02-18T14:35:49.009Z,0.97
2023-02-18T14:38:15.668Z,0.73
2023-02-18T14:40:56.456Z,0.90
2023-02-18T14:43:28.830Z,1.10
2023-02-18T14:46:13.575Z,1.07
2023-02-18T14:49:28.612Z,0.90
2023-02-18T14:51:57.866Z,1.27
2023-02-18T14:54:26.896Z,1.10
2023-02-18T14:57:00.573Z,1.33
2023-02-18T14:59:31.493Z,1.20
2023-02-18T15:01:58.313Z,1.10
2023-02-18T15:04:26.580Z,1.13
2023-02-18T15:07:02.118Z,1.30
2023-02-18T15:09:29.583Z,1.20
2023-02-18T15:12:08.588Z,1.53
2023-02-18T15:14:40.076Z,1.00
2023-02-18T15:17:11.926Z,1.20
2023-02-18T15:19:47.574Z,1.30
2023-02-18T15:22:23.519Z,1.00
2023-02-18T15:24:52.413Z,1.10
2023-02-18T15:27:28.669Z,1.40
2023-02-18T15:30:15.302Z,1.00
2023-02-18T15:32:49.958Z,1.00
2023-02-18T15:35:19.787Z,1.10
2023-02-18T15:37:51.970Z,1.20
2023-02-18T15:40:19.469Z,1.20
2023-02-18T15:42:52.897Z,1.20
2023-02-18T15:45:31.071Z,1.23
2023-02-18T15:47:59.665Z,1.10
2023-02-18T15:50:38.424Z,1.30
2023-02-18T15:53:15.014Z,0.90
2023-02-18T15:55:45.850Z,1.03
2023-02-18T15:58:15.240Z,0.80
2023-02-18T16:00:49.793Z,1.30
2023-02-18T16:03:26.465Z,0.93
2023-02-18T16:06:28.877Z,1.00
2023-02-18T16:09:00.037Z,0.90
2023-02-18T16:11:35.552Z,1.00
2023-02-18T16:14:02.553Z,0.80
2023-02-18T16:16:33.514Z,1.33
2023-02-18T16:19:00.961Z,1.20
2023-02-18T16:21:44.839Z,1.13
2023-02-18T16:24:27.303Z,0.90
2023-02-18T16:26:57.486Z,1.27
2023-02-18T16:29:27.308Z,1.10
2023-02-18T16:31:54.150Z,1.47
2023-02-18T16:34:21.124Z,2.20
2023-02-18T16:37:06.323Z,1.30
2023-02-18T16:39:34.854Z,3.20
2023-02-18T16:42:01.706Z,1.30
2023-02-18T16:44:28.513Z,1.47
2023-02-18T16:46:56.692Z,1.20
2023-02-18T16:49:23.556Z,1.37
2023-02-18T16:51:50.255Z,1.33
2023-02-18T16:54:17.306Z,1.83
2023-02-18T16:56:44.009Z,1.40
2023-02-18T16:59:10.782Z,1.70
2023-02-18T17:01:44.798Z,1.80
2023-02-18T17:04:14.854Z,1.67
2023-02-18T17:06:42.097Z,1.40
2023-02-18T17:09:21.257Z,1.90
2023-02-18T17:11:50.606Z,1.63
2023-02-18T17:14:19.710Z,3.40
2023-02-18T17:16:52.598Z,2.50
2023-02-18T17:19:19.492Z,2.00
2023-02-18T17:21:48.611Z,2.07
2023-02-18T17:24:18.331Z,2.20
2023-02-18T17:26:45.110Z,2.57
2023-02-18T17:29:12.287Z,3.07
2023-02-18T17:31:47.015Z,2.97
2023-02-18T17:34:24.367Z,2.87
2023-02-18T17:36:51.112Z,2.73
2023-02-18T17:39:18.330Z,2.93
2023-02-18T17:41:45.240Z,2.70
2023-02-18T17:44:20.612Z,2.80
2023-02-18T17:46:49.723Z,3.87
2023-02-18T17:49:16.952Z,4.03
2023-02-18T17:51:44.144Z,3.37
2023-02-18T17:54:19.546Z,3.20
2023-02-18T17:56:46.988Z,4.43
2023-02-18T17:59:13.860Z,4.60
2023-02-18T18:01:40.991Z,3.77
2023-02-18T18:04:16.311Z,5.10
2023-02-18T18:06:43.557Z,4.70
2023-02-18T18:09:10.370Z,5.10
2023-02-18T18:11:38.211Z,5.77
2023-02-18T18:14:05.011Z,6.53
2023-02-18T18:16:31.832Z,6.67
2023-02-18T18:18:58.659Z,6.20
2023-02-18T18:21:29.878Z,9.37
2023-02-18T18:23:56.768Z,8.03
2023-02-18T18:26:23.618Z,9.00
2023-02-18T18:28:50.352Z,10.00
2023-02-18T18:31:19.210Z,8.57
2023-02-18T18:33:48.982Z,8.53
2023-02-18T18:36:17.194Z,8.00
2023-02-18T18:38:43.981Z,10.67
2023-02-18T18:41:15.900Z,7.93
2023-02-18T18:43:42.739Z,8.30
2023-02-18T18:46:09.640Z,8.10
2023-02-18T18:48:36.455Z,8.67
2023-02-18T18:51:03.806Z,8.87
2023-02-18T18:53:32.971Z,7.37
2023-02-18T18:56:06.039Z,9.20
2023-02-18T18:58:33.098Z,8.20
2023-02-18T19:01:02.423Z,8.10
2023-02-18T19:03:30.463Z,8.70
2023-02-18T19:05:57.734Z,7.80
2023-02-18T19:08:24.699Z,7.90
2023-02-18T19:10:54.506Z,8.30
2023-02-18T19:13:29.728Z,8.10
2023-02-18T19:16:21.313Z,7.90
2023-02-18T19:18:49.083Z,6.60
2023-02-18T19:21:16.888Z,7.57
2023-02-18T19:23:43.930Z,6.80
2023-02-18T19:26:11.417Z,7.77
2023-02-18T19:28:38.180Z,7.23
2023-02-18T19:31:10.286Z,6.70
2023-02-18T19:33:39.089Z,7.77
2023-02-18T19:36:10.084Z,7.00
2023-02-18T19:38:37.497Z,6.50
2023-02-18T19:41:14.966Z,6.77
2023-02-18T19:43:43.900Z,6.67
2023-02-18T19:46:13.282Z,6.27
2023-02-18T19:48:40.836Z,6.33
2023-02-18T19:51:08.659Z,7.40
2023-02-18T19:53:35.873Z,7.77
2023-02-18T19:56:07.332Z,7.40
2023-02-18T19:58:35.422Z,6.97
2023-02-18T20:01:02.214Z,7.67
2023-02-18T20:03:29.505Z,6.57
2023-02-18T20:05:56.265Z,7.47
2023-02-18T20:08:23.023Z,5.90
2023-02-18T20:10:57.506Z,6.30
2023-02-18T20:13:24.227Z,7.00
2023-02-18T20:15:51.074Z,6.43
2023-02-18T20:18:17.834Z,5.90
2023-02-18T20:20:49.087Z,5.87
2023-02-18T20:23:16.207Z,5.90
2023-02-18T20:25:42.950Z,6.30
2023-02-18T20:28:09.769Z,4.83
2023-02-18T20:30:36.619Z,5.30
2023-02-18T20:33:03.406Z,4.70
2023-02-18T20:35:30.239Z,4.80
2023-02-18T20:37:56.911Z,4.30
2023-02-18T20:40:23.632Z,5.10
2023-02-18T20:42:50.416Z,5.90
2023-02-18T20:45:18.016Z,4.87
2023-02-18T20:47:44.789Z,4.10
2023-02-18T20:50:11.516Z,4.03
2023-02-18T20:52:38.226Z,4.10
2023-02-18T20:55:05.155Z,4.40
2023-02-18T20:57:31.844Z,3.77
2023-02-18T20:59:58.718Z,4.30
2023-02-18T21:02:25.607Z,3.77
2023-02-18T21:04:52.313Z,5.00
2023-02-18T21:07:19.050Z,4.40
2023-02-18T21:09:45.769Z,4.70
2023-02-18T21:12:12.488Z,3.97
2023-02-18T21:14:39.263Z,3.90
2023-02-18T21:17:07.341Z,4.80
2023-02-18T21:19:35.274Z,4.10
2023-02-18T21:22:02.032Z,3.00
2023-02-18T21:24:28.927Z,3.63
2023-02-18T21:26:55.651Z,3.80
2023-02-18T21:29:22.463Z,3.47
2023-02-18T21:31:49.343Z,3.80
2023-02-18T21:34:17.623Z,4.70
2023-02-18T21:36:44.708Z,4.20
2023-02-18T21:39:11.691Z,4.60
2023-02-18T21:41:40.687Z,4.80
2023-02-18T21:44:08.259Z,4.07
2023-02-18T21:46:36.742Z,8.40
2023-02-18T21:49:12.420Z,3.57
2023-02-18T21:52:08.467Z,3.40
2023-02-18T21:54:44.833Z,3.17
2023-02-18T21:57:17.881Z,2.97
2023-02-18T21:59:47.609Z,3.47
2023-02-18T22:02:22.929Z,3.90
2023-02-18T22:04:50.865Z,3.97
2023-02-18T22:07:19.024Z,3.80
2023-02-18T22:09:48.380Z,3.50
2023-02-18T22:12:15.881Z,4.70
2023-02-18T22:14:43.415Z,5.40
2023-02-18T22:17:10.467Z,3.77
2023-02-18T22:19:39.493Z,3.60
2023-02-18T22:22:06.205Z,3.47
2023-02-18T22:24:33.493Z,4.50
2023-02-18T22:27:03.266Z,4.20
2023-02-18T22:29:31.484Z,4.10
2023-02-18T22:31:58.396Z,3.90
2023-02-18T22:34:26.517Z,3.50
2023-02-18T22:36:53.183Z,4.20
2023-02-18T22:39:20.101Z,5.40
2023-02-18T22:41:47.171Z,4.37
2023-02-18T22:44:16.150Z,4.80
2023-02-18T22:46:43.330Z,4.80
2023-02-18T22:49:11.450Z,4.60
2023-02-18T22:51:40.807Z,5.63
2023-02-18T22:54:12.106Z,3.67
2023-02-18T22:56:38.855Z,3.93
2023-02-18T22:59:05.727Z,5.00
2023-02-18T23:01:36.060Z,4.10
2023-02-18T23:04:11.432Z,4.83
2023-02-18T23:06:40.148Z,4.77
2023-02-18T23:09:09.200Z,4.43
2023-02-18T23:11:36.085Z,4.77
2023-02-18T23:14:18.162Z,3.83
2023-02-18T23:17:17.786Z,4.37
2023-02-18T23:19:44.693Z,3.97
2023-02-18T23:22:13.454Z,3.37
2023-02-18T23:24:43.685Z,3.97
2023-02-18T23:27:13.003Z,3.57
2023-02-18T23:29:40.328Z,3.20
2023-02-18T23:32:08.055Z,3.90
2023-02-18T23:34:35.059Z,3.70
2023-02-18T23:37:01.872Z,3.83
2023-02-18T23:39:29.559Z,3.63
2023-02-18T23:41:56.891Z,4.00
2023-02-18T23:44:25.763Z,4.17
2023-02-18T23:46:52.850Z,4.60
2023-02-18T23:49:24.875Z,6.60
2023-02-18T23:51:53.433Z,4.30
2023-02-18T23:54:21.394Z,4.77
2023-02-18T23:56:48.255Z,4.63
2023-02-18T23:59:15.374Z,3.83
